Terminal Aerodrome Forecast
Issued by NWS

Home | Current Version | Previous Version | Text Only | Print | Product List | Glossary On
Versions: 1 2 3 4 5 6 7 8 9 10 11 12 13 14 15 16
366
FTUS43 KDVN 301135
TAFBRL
TAF
KBRL 301135Z 3012/3112 00000KT P6SM SCT008 OVC025
     FM301500 34005KT P6SM BKN030
     FM302000 01004KT P6SM VCSH BKN040
     FM310100 05003KT P6SM BKN050=

USA.gov is the U.S. government's official web portal to all federal, state and local government web resources and services.